Time;durP1;ratioP1;P1;durP2;ratioP2;P2;SDS_P1;SDS_P2;PMS_P1;PMS_P2;Temp;Humidity;BMP_temperature;BMP_pressure;BME280_temperature;BME280_humidity;BME280_pressure;Samples;Min_cycle;Max_cycle;Signal;HPM_P1;HPM_P2
2021/12/11 00:01:36;;;;;;;10.45;1.83;;;18.80;45.70;;;;;;5015681;28;20069;-65
2021/12/11 00:04:06;;;;;;;6.93;1.40;;;18.80;45.40;;;;;;5015937;28;20208;-63
2021/12/11 00:06:38;;;;;;;8.45;1.48;;;18.70;45.20;;;;;;4999881;28;20073;-67
2021/12/11 00:09:30;;;;;;;10.50;1.67;;;18.60;45.10;;;;;;5015640;28;20448;-66
2021/12/11 00:12:07;;;;;;;10.85;1.33;;;18.60;46.10;;;;;;5033724;28;20167;-67
2021/12/11 00:14:38;;;;;;;4.22;1.15;;;18.60;45.40;;;;;;5015728;28;20495;-67
2021/12/11 00:17:05;;;;;;;10.18;1.60;;;18.50;45.40;;;;;;5015719;28;20505;-66
2021/12/11 00:19:35;;;;;;;9.95;1.40;;;18.50;45.70;;;;;;5032058;28;20606;-65
2021/12/11 00:22:12;;;;;;;15.02;2.17;;;18.50;46.00;;;;;;5013191;28;20127;-64
2021/12/11 00:24:40;;;;;;;11.30;2.90;;;18.50;46.10;;;;;;5033433;28;20073;-65
2021/12/11 00:27:11;;;;;;;11.55;4.25;;;18.50;46.20;;;;;;5015212;28;20532;-66
2021/12/11 00:29:38;;;;;;;9.15;2.00;;;18.30;56.70;;;;;;5014130;28;20085;-64
2021/12/11 00:32:09;;;;;;;9.80;2.83;;;18.50;46.50;;;;;;5013984;28;20073;-65
2021/12/11 00:34:39;;;;;;;6.32;1.63;;;18.40;46.40;;;;;;5014356;28;20097;-65
2021/12/11 00:37:10;;;;;;;8.38;1.50;;;18.30;46.40;;;;;;5031710;28;20132;-65
2021/12/11 00:40:06;;;;;;;8.50;1.65;;;18.30;46.90;;;;;;5013921;28;21091;-64
2021/12/11 00:42:34;;;;;;;10.65;1.45;;;18.20;46.70;;;;;;4998225;28;20066;-65
2021/12/11 00:45:12;;;;;;;20.55;1.85;;;18.20;47.10;;;;;;5013884;28;20074;-64
2021/12/11 00:47:53;;;;;;;11.15;1.73;;;18.10;47.80;;;;;;5014005;28;20535;-63
2021/12/11 00:50:25;;;;;;;14.18;2.13;;;18.10;48.20;;;;;;5026807;28;20124;-66
2021/12/11 00:53:32;;;;;;;12.82;1.80;;;18.10;48.50;;;;;;5047048;28;20477;-66
2021/12/11 00:56:07;;;;;;;13.88;1.88;;;18.10;48.90;;;;;;5049191;28;20093;-65
2021/12/11 00:58:36;;;;;;;9.10;1.60;;;18.00;48.70;;;;;;5048652;28;20085;-66
2021/12/11 01:01:14;;;;;;;13.00;2.28;;;18.00;48.60;;;;;;5049572;28;20098;-65
2021/12/11 01:04:07;;;;;;;9.60;1.95;;;18.00;48.30;;;;;;5049738;28;20076;-67
2021/12/11 01:06:49;;;;;;;8.90;1.95;;;17.90;48.50;;;;;;5012465;28;21581;-67
2021/12/11 01:09:38;;;;;;;9.48;2.28;;;17.90;47.80;;;;;;5057483;28;20454;-67
2021/12/11 01:12:15;;;;;;;9.63;2.45;;;17.90;48.10;;;;;;5051138;28;20092;-65
2021/12/11 01:14:53;;;;;;;17.63;2.22;;;17.80;47.80;;;;;;5059005;28;20069;-63
2021/12/11 01:17:58;;;;;;;16.42;2.45;;;17.80;47.30;;;;;;5036946;28;20105;-66
2021/12/11 01:21:06;;;;;;;12.45;2.42;;;17.70;47.00;;;;;;5057350;28;20472;-64
2021/12/11 01:26:11;;;;;;;12.18;2.17;;;17.60;46.60;;;;;;4970847;28;20130;-65
2021/12/11 01:28:39;;;;;;;13.88;1.98;;;17.60;45.00;;;;;;4971027;28;20497;-66
2021/12/11 01:31:10;;;;;;;5.90;1.83;;;17.60;43.30;;;;;;4970320;28;20142;-65
2021/12/11 01:33:37;;;;;;;17.38;2.95;;;17.50;42.50;;;;;;4955140;28;20549;-66
2021/12/11 01:36:05;;;;;;;6.07;2.05;;;17.50;43.00;;;;;;4971181;28;20095;-66
2021/12/11 01:38:33;;;;;;;9.68;1.73;;;17.50;43.10;;;;;;4957374;28;20111;-65
2021/12/11 01:41:09;;;;;;;14.32;2.17;;;17.40;43.70;;;;;;4954589;28;20091;-65
2021/12/11 01:43:38;;;;;;;9.88;2.35;;;17.50;44.00;;;;;;4966845;28;20087;-66
2021/12/11 01:46:06;;;;;;;16.88;2.45;;;17.50;44.30;;;;;;4954053;28;20107;-68
2021/12/11 01:48:39;;;;;;;20.95;3.50;;;17.50;44.00;;;;;;4954185;28;20086;-65
2021/12/11 01:51:17;;;;;;;15.40;2.33;;;17.40;44.00;;;;;;4969649;28;20149;-65
2021/12/11 01:53:51;;;;;;;9.40;2.20;;;17.30;44.50;;;;;;4954067;28;20090;-66
2021/12/11 01:56:22;;;;;;;17.83;6.13;;;17.30;44.50;;;;;;4971708;28;20078;-65
2021/12/11 01:58:59;;;;;;;13.90;4.22;;;17.30;44.20;;;;;;4976411;28;20099;-68
2021/12/11 02:01:47;;;;;;;13.90;3.30;;;17.20;44.50;;;;;;5050318;28;20138;-66
2021/12/11 02:04:18;;;;;;;17.65;2.67;;;17.20;44.20;;;;;;5040292;28;20160;-68
2021/12/11 02:06:48;;;;;;;10.07;2.50;;;17.20;43.10;;;;;;5048066;28;20076;-67
2021/12/11 02:09:21;;;;;;;10.23;3.13;;;17.10;43.10;;;;;;5029295;28;20069;-66
2021/12/11 02:11:51;;;;;;;13.77;2.80;;;17.10;43.10;;;;;;5043836;28;20435;-65
2021/12/11 02:14:26;;;;;;;16.08;2.58;;;17.10;43.40;;;;;;5054573;28;20112;-65
2021/12/11 02:16:54;;;;;;;12.35;1.80;;;17.10;42.50;;;;;;5038725;28;20102;-65
2021/12/11 02:19:30;;;;;;;17.38;2.28;;;17.00;41.70;;;;;;5052058;28;20086;-68
2021/12/11 02:22:26;;;;;;;22.60;3.10;;;17.00;40.90;;;;;;5044281;28;20073;-69
2021/12/11 02:24:56;;;;;;;11.13;1.90;;;17.00;40.80;;;;;;5047561;28;20073;-67
2021/12/11 02:27:32;;;;;;;14.02;2.42;;;16.90;40.80;;;;;;5058042;28;20427;-68
2021/12/11 02:29:59;;;;;;;18.88;2.53;;;16.90;40.90;;;;;;5041673;28;20524;-69
2021/12/11 02:32:33;;;;;;;;;;;16.90;40.80;;;;;;5048800;28;20115;-68
2021/12/11 02:35:31;;;;;;;12.63;2.30;;;16.90;40.30;;;;;;5046609;28;20315;-66
2021/12/11 02:38:10;;;;;;;13.63;2.67;;;16.80;39.50;;;;;;5042995;28;20108;-66
2021/12/11 02:40:47;;;;;;;16.50;2.17;;;16.80;39.70;;;;;;5049430;28;20088;-66
2021/12/11 02:43:31;;;;;;;10.75;2.10;;;16.70;40.70;;;;;;5066556;28;20076;-65
2021/12/11 02:46:04;;;;;;;10.27;3.20;;;16.80;39.70;;;;;;5049123;28;20126;-66
2021/12/11 02:49:02;;;;;;;7.22;2.05;;;16.80;39.30;;;;;;5049544;28;20084;-68
2021/12/11 02:52:04;;;;;;;9.63;2.10;;;16.80;38.90;;;;;;4953475;28;20529;-63
2021/12/11 02:54:44;;;;;;;12.48;2.30;;;16.70;38.40;;;;;;4895585;29;20114;-64
2021/12/11 02:57:22;;;;;;;7.40;2.28;;;16.70;38.40;;;;;;4895967;29;20088;-65
2021/12/11 02:59:49;;;;;;;13.35;2.60;;;16.70;38.20;;;;;;4896060;29;20116;-64
2021/12/11 03:02:23;;;;;;;14.73;2.70;;;16.60;37.50;;;;;;4896495;29;20171;-67
2021/12/11 03:05:08;;;;;;;6.13;2.10;;;16.60;36.50;;;;;;4896868;29;20092;-65
2021/12/11 03:07:38;;;;;;;10.80;1.80;;;16.60;36.60;;;;;;4896325;29;20072;-65
2021/12/11 03:10:11;;;;;;;11.82;2.28;;;16.60;37.30;;;;;;4912319;29;20097;-68
2021/12/11 03:12:38;;;;;;;10.35;2.08;;;16.50;38.00;;;;;;4896170;29;20084;-66
2021/12/11 03:15:07;;;;;;;10.82;1.88;;;16.40;38.20;;;;;;4896167;29;20097;-65
2021/12/11 03:17:34;;;;;;;8.18;2.10;;;16.40;38.60;;;;;;4896037;29;20185;-65
2021/12/11 03:20:01;;;;;;;7.03;2.63;;;16.30;39.10;;;;;;4896176;29;20132;-64
2021/12/11 03:22:30;;;;;;;14.10;3.25;;;16.20;39.20;;;;;;4880341;29;20595;-65
2021/12/11 03:24:58;;;;;;;15.52;3.60;;;16.10;39.20;;;;;;4880858;29;20153;-63
2021/12/11 03:27:25;;;;;;;14.15;3.60;;;16.10;39.60;;;;;;4906846;28;20099;-65
2021/12/11 03:29:52;;;;;;;11.30;3.60;;;16.00;39.60;;;;;;5010919;28;20531;-63
2021/12/11 03:32:20;;;;;;;7.72;3.25;;;16.00;40.80;;;;;;5036429;28;20127;-63
2021/12/11 03:34:48;;;;;;;7.03;3.42;;;16.00;41.20;;;;;;5041758;28;20082;-64
2021/12/11 03:37:17;;;;;;;17.17;3.58;;;15.80;41.10;;;;;;5067903;28;20077;-62
2021/12/11 03:39:47;;;;;;;12.30;3.10;;;15.70;41.60;;;;;;5070465;28;20089;-63
2021/12/11 03:42:19;;;;;;;15.02;3.33;;;15.70;42.30;;;;;;5046513;28;20125;-63
2021/12/11 03:44:47;;;;;;;12.35;3.88;;;15.60;42.20;;;;;;5068114;28;20073;-64
2021/12/11 03:47:19;;;;;;;16.77;4.10;;;15.50;42.10;;;;;;5037469;28;20069;-64
2021/12/11 03:49:46;;;;;;;8.00;3.55;;;15.50;42.70;;;;;;5051940;28;20113;-64
2021/12/11 03:52:14;;;;;;;18.73;3.83;;;15.50;43.80;;;;;;5033785;28;20103;-69
2021/12/11 03:54:43;;;;;;;10.70;3.47;;;15.40;43.30;;;;;;5016045;28;20137;-63
2021/12/11 03:57:15;;;;;;;12.38;3.30;;;15.40;43.90;;;;;;5032025;28;20092;-65
2021/12/11 03:59:46;;;;;;;15.98;3.40;;;15.30;44.20;;;;;;5032302;28;20176;-64
2021/12/11 04:02:13;;;;;;;15.02;4.72;;;15.30;45.30;;;;;;5032468;28;20081;-64
2021/12/11 04:04:49;;;;;;;25.17;6.50;;;15.20;44.70;;;;;;5016157;28;20073;-64
2021/12/11 04:07:21;;;;;;;20.73;6.03;;;15.10;45.40;;;;;;5032471;28;20084;-64
2021/12/11 04:09:48;;;;;;;10.55;3.65;;;15.10;44.90;;;;;;5020704;28;20105;-64
2021/12/11 04:12:17;;;;;;;15.10;3.20;;;15.00;44.50;;;;;;5053119;28;20065;-64
2021/12/11 04:14:45;;;;;;;10.18;3.20;;;15.00;44.80;;;;;;5035493;28;20073;-63
2021/12/11 04:17:14;;;;;;;11.48;3.70;;;15.00;45.90;;;;;;5035664;28;20163;-65
2021/12/11 04:19:41;;;;;;;15.80;4.15;;;14.90;45.50;;;;;;5050807;28;20081;-65
2021/12/11 04:22:08;;;;;;;9.80;3.42;;;14.80;46.10;;;;;;5052336;28;20495;-64
2021/12/11 04:24:37;;;;;;;13.30;3.15;;;14.80;45.50;;;;;;5035010;28;20077;-63
2021/12/11 04:27:06;;;;;;;15.40;2.92;;;14.80;45.90;;;;;;5035322;28;20436;-63
2021/12/11 04:29:33;;;;;;;19.80;6.50;;;14.80;46.70;;;;;;5035310;28;20780;-63
2021/12/11 04:32:02;;;;;;;12.63;5.70;;;14.70;46.50;;;;;;5035261;28;20127;-63
2021/12/11 04:34:31;;;;;;;15.38;6.32;;;14.60;46.60;;;;;;5034260;28;20074;-64
2021/12/11 04:37:10;;;;;;;19.48;10.82;;;14.50;46.70;;;;;;5035185;28;20498;-63
2021/12/11 04:39:38;;;;;;;28.25;13.38;;;14.40;46.50;;;;;;5053178;28;20446;-63
2021/12/11 04:42:20;;;;;;;31.88;13.50;;;14.30;47.10;;;;;;5052949;28;20066;-63
2021/12/11 04:44:47;;;;;;;29.55;14.07;;;14.30;47.70;;;;;;5053049;28;20077;-64
2021/12/11 04:47:31;;;;;;;36.05;13.85;;;14.30;48.20;;;;;;5035057;28;20077;-65
2021/12/11 04:50:03;;;;;;;24.38;11.43;;;14.30;47.70;;;;;;5035815;28;20215;-66
2021/12/11 04:52:47;;;;;;;25.08;10.75;;;14.30;48.10;;;;;;5027357;28;20082;-64
2021/12/11 04:55:46;;;;;;;24.00;9.35;;;14.20;48.30;;;;;;5014827;28;20132;-65
2021/12/11 04:58:38;;;;;;;29.15;7.72;;;14.20;48.70;;;;;;5032177;28;20126;-64
2021/12/11 05:04:04;;;;;;;27.30;9.70;;;14.10;48.40;;;;;;5032498;28;20097;-64
2021/12/11 05:09:27;;;;;;;26.48;7.43;;;14.00;47.80;;;;;;5031590;28;20436;-65
2021/12/11 05:12:10;;;;;;;20.65;6.07;;;14.00;47.90;;;;;;5018980;28;20575;-65
2021/12/11 05:14:37;;;;;;;19.20;5.95;;;14.00;48.50;;;;;;5014615;28;20084;-66
2021/12/11 05:17:05;;;;;;;21.73;8.63;;;13.90;48.20;;;;;;4998243;28;20081;-65
2021/12/11 05:19:32;;;;;;;25.58;9.90;;;13.90;48.00;;;;;;5013544;28;20094;-65
2021/12/11 05:21:59;;;;;;;18.33;8.27;;;13.90;48.30;;;;;;5014382;28;20529;-64
2021/12/11 05:24:26;;;;;;;24.10;7.22;;;13.80;48.60;;;;;;5014763;28;20074;-64
2021/12/11 05:26:52;;;;;;;21.33;6.82;;;13.80;48.90;;;;;;5014479;28;20070;-66
2021/12/11 05:29:19;;;;;;;21.92;6.32;;;13.80;48.80;;;;;;5014301;28;20078;-65
2021/12/11 05:31:46;;;;;;;19.80;5.90;;;13.70;48.70;;;;;;5014381;28;20089;-64
2021/12/11 05:34:13;;;;;;;19.17;6.63;;;13.70;49.00;;;;;;5014380;28;20089;-64
2021/12/11 05:36:39;;;;;;;;;;;13.70;49.30;;;;;;5015176;28;20128;-65
2021/12/11 05:39:10;;;;;;;18.38;6.60;;;13.60;48.30;;;;;;5014201;28;20071;-66
2021/12/11 05:41:37;;;;;;;21.92;6.60;;;13.60;48.50;;;;;;5014533;28;20070;-64
2021/12/11 05:44:05;;;;;;;14.07;6.55;;;13.60;48.20;;;;;;5013971;28;20099;-65
2021/12/11 05:46:33;;;;;;;14.65;6.45;;;13.50;48.00;;;;;;5022724;28;20493;-65
2021/12/11 05:48:59;;;;;;;20.05;6.38;;;13.50;47.80;;;;;;5024615;28;20078;-65
2021/12/11 05:51:26;;;;;;;15.85;6.38;;;13.50;47.70;;;;;;5049436;28;20089;-64
2021/12/11 05:53:57;;;;;;;13.10;5.95;;;13.50;47.60;;;;;;5029758;28;20419;-67
2021/12/11 05:56:24;;;;;;;14.63;5.18;;;13.50;46.80;;;;;;5034131;28;20155;-65
2021/12/11 06:01:27;;;;;;;12.45;5.20;;;13.40;46.10;;;;;;5051646;28;20069;-67
2021/12/11 06:03:53;;;;;;;8.80;4.35;;;13.40;44.80;;;;;;5049637;28;20085;-65
2021/12/11 06:06:19;;;;;;;;;;;13.40;44.90;;;;;;5051287;28;20176;-65
2021/12/11 06:08:46;;;;;;;14.30;4.20;;;13.40;46.10;;;;;;5058877;28;20021;-66
2021/12/11 06:11:15;;;;;;;10.73;4.10;;;13.30;46.30;;;;;;5051893;28;20436;-66
2021/12/11 06:13:42;;;;;;;9.75;3.40;;;13.30;45.40;;;;;;5034113;28;20080;-69
2021/12/11 06:16:09;;;;;;;9.80;3.33;;;13.30;44.30;;;;;;5066833;28;20164;-67
2021/12/11 06:18:36;;;;;;;12.13;3.40;;;13.30;44.20;;;;;;5047259;28;20536;-67
2021/12/11 06:21:03;;;;;;;39.00;4.28;;;13.20;43.60;;;;;;5070688;28;20092;-67
2021/12/11 06:23:29;;;;;;;15.90;3.35;;;13.20;44.50;;;;;;5052177;28;20069;-66
2021/12/11 06:25:56;;;;;;;;;;;13.20;44.90;;;;;;5028221;28;20072;-68
2021/12/11 06:28:25;;;;;;;11.27;3.38;;;13.20;43.60;;;;;;5048248;28;19956;-70
2021/12/11 06:30:52;;;;;;;9.20;3.17;;;13.20;43.70;;;;;;5050708;28;20073;-70
2021/12/11 06:33:21;;;;;;;11.75;3.30;;;13.20;45.00;;;;;;5063364;28;20578;-70
2021/12/11 06:36:04;;;;;;;7.82;3.55;;;13.20;44.60;;;;;;5044348;28;20093;-69
2021/12/11 06:38:33;;;;;;;4.30;2.83;;;13.20;43.60;;;;;;5041929;28;20160;-71
2021/12/11 06:41:00;;;;;;;11.35;4.13;;;13.20;43.80;;;;;;5050710;28;20081;-70
2021/12/11 06:43:27;;;;;;;13.63;4.28;;;13.20;43.10;;;;;;5046978;28;20073;-69
2021/12/11 06:45:54;;;;;;;8.95;3.50;;;13.10;43.10;;;;;;5036139;28;20073;-70
2021/12/11 06:48:20;;;;;;;10.35;2.97;;;13.10;42.70;;;;;;5046245;28;20172;-70
2021/12/11 06:50:47;;;;;;;7.63;3.03;;;13.10;42.60;;;;;;5049902;28;20101;-73
2021/12/11 06:53:27;;;;;;;10.38;2.80;;;13.10;43.00;;;;;;5069125;28;20565;-71
2021/12/11 06:55:54;;;;;;;5.97;2.78;;;13.00;43.80;;;;;;5032316;28;20112;-72
2021/12/11 06:58:21;;;;;;;8.93;2.70;;;13.00;45.30;;;;;;5046265;28;20691;-71
2021/12/11 07:00:47;;;;;;;7.25;3.00;;;13.00;44.70;;;;;;5042605;28;20072;-71
2021/12/11 07:03:14;;;;;;;5.47;2.47;;;12.90;44.60;;;;;;5043765;28;20607;-71
2021/12/11 07:05:41;;;;;;;9.50;2.38;;;12.90;45.30;;;;;;5050318;28;20151;-71
2021/12/11 07:08:11;;;;;;;8.55;2.80;;;12.80;44.20;;;;;;5041977;28;20089;-70
2021/12/11 07:10:40;;;;;;;6.78;2.10;;;12.80;44.60;;;;;;5026083;28;20073;-66
2021/12/11 07:13:06;;;;;;;9.38;2.35;;;12.80;44.30;;;;;;5039896;28;20097;-70
2021/12/11 07:15:33;;;;;;;7.32;2.80;;;12.70;44.10;;;;;;5037429;28;20504;-71
2021/12/11 07:18:00;;;;;;;6.85;2.42;;;12.60;44.30;;;;;;5047003;28;20084;-74
2021/12/11 07:20:26;;;;;;;;;;;12.60;44.20;;;;;;5045823;28;20153;-70
2021/12/11 07:22:54;;;;;;;7.05;3.10;;;12.60;45.50;;;;;;5034285;28;19976;-68
2021/12/11 07:25:37;;;;;;;7.07;3.22;;;12.60;44.90;;;;;;5045336;28;20176;-70
2021/12/11 07:28:07;;;;;;;6.63;3.55;;;12.60;44.20;;;;;;5048392;28;20100;-70
2021/12/11 07:30:35;;;;;;;7.60;3.60;;;12.50;44.50;;;;;;5051819;28;20108;-70
2021/12/11 07:33:04;;;;;;;13.20;3.50;;;12.50;44.50;;;;;;5036810;28;20161;-70
2021/12/11 07:35:33;;;;;;;6.63;3.45;;;12.40;45.70;;;;;;5032389;28;20085;-69
2021/12/11 07:38:00;;;;;;;9.10;3.47;;;12.40;45.00;;;;;;5035874;28;20069;-68
2021/12/11 07:40:30;;;;;;;7.07;3.30;;;12.40;44.90;;;;;;5034806;28;20097;-71
2021/12/11 07:42:57;;;;;;;10.73;3.45;;;12.30;44.60;;;;;;5052139;28;20180;-69
2021/12/11 07:45:25;;;;;;;8.30;3.10;;;12.30;45.60;;;;;;5037530;28;20073;-70
2021/12/11 07:47:52;;;;;;;8.15;3.45;;;12.30;44.70;;;;;;5051767;28;20092;-71
2021/12/11 07:50:20;;;;;;;7.78;3.78;;;12.30;44.60;;;;;;5039359;28;20105;-70
2021/12/11 07:52:47;;;;;;;8.45;2.67;;;12.30;43.80;;;;;;5034514;28;20219;-70
2021/12/11 07:55:15;;;;;;;4.82;2.55;;;12.30;42.00;;;;;;5040247;28;20554;-68
2021/12/11 07:57:42;;;;;;;5.95;1.85;;;12.30;42.00;;;;;;5037887;28;20176;-71
2021/12/11 08:00:13;;;;;;;9.13;2.10;;;12.20;42.40;;;;;;5038170;28;20141;-71
2021/12/11 08:02:40;;;;;;;5.53;2.00;;;12.30;42.10;;;;;;5038307;28;20069;-72
2021/12/11 08:05:07;;;;;;;7.90;1.80;;;12.20;41.30;;;;;;5052801;28;20420;-72
2021/12/11 08:07:34;;;;;;;4.72;1.77;;;12.20;41.20;;;;;;5040368;28;20512;-71
2021/12/11 08:10:00;;;;;;;;;;;12.10;41.50;;;;;;5036998;28;20084;-69
2021/12/11 08:12:26;;;;;;;5.05;1.60;;;12.10;42.20;;;;;;5035603;28;19980;-70
2021/12/11 08:14:52;;;;;;;;;;;12.00;42.60;;;;;;5034445;28;20096;-70
2021/12/11 08:17:20;;;;;;;6.60;1.80;;;12.00;42.90;;;;;;5052224;28;19964;-70
2021/12/11 08:19:46;;;;;;;7.55;2.10;;;11.90;44.00;;;;;;5037443;28;20176;-64
2021/12/11 08:22:13;;;;;;;2.78;1.55;;;11.90;44.30;;;;;;5036326;28;20074;-66
2021/12/11 08:24:40;;;;;;;4.97;2.03;;;11.90;44.00;;;;;;5035450;28;20554;-67
2021/12/11 08:27:11;;;;;;;6.10;2.05;;;11.90;44.60;;;;;;5021790;28;20072;-66
2021/12/11 08:29:42;;;;;;;3.85;1.70;;;11.90;44.70;;;;;;5035848;28;20532;-67
2021/12/11 08:32:09;;;;;;;8.05;1.95;;;11.80;44.30;;;;;;5050672;28;20077;-66
2021/12/11 08:34:36;;;;;;;13.82;2.20;;;11.80;44.20;;;;;;5017092;28;20074;-68
2021/12/11 08:37:05;;;;;;;5.35;2.03;;;11.80;44.50;;;;;;5037023;28;20116;-65
2021/12/11 08:39:32;;;;;;;7.72;1.92;;;11.70;44.30;;;;;;5035278;28;20085;-67
2021/12/11 08:42:02;;;;;;;6.55;2.13;;;11.70;45.50;;;;;;5037171;28;20593;-66
2021/12/11 08:44:35;;;;;;;4.20;2.15;;;11.70;45.40;;;;;;5040264;28;20204;-67
2021/12/11 08:47:07;;;;;;;6.38;2.65;;;11.60;45.40;;;;;;5052434;28;20141;-66
2021/12/11 08:49:37;;;;;;;8.02;3.03;;;11.60;45.70;;;;;;5048416;28;20607;-66
2021/12/11 08:52:30;;;;;;;9.20;3.30;;;11.60;45.20;;;;;;5036261;28;20424;-67
2021/12/11 08:54:58;;;;;;;18.58;7.65;;;11.50;46.10;;;;;;5038892;28;20073;-66
2021/12/11 08:57:29;;;;;;;16.88;7.13;;;11.50;45.80;;;;;;5050772;28;20113;-66
2021/12/11 09:00:00;;;;;;;19.23;6.82;;;11.40;46.00;;;;;;5011107;28;20089;-67
2021/12/11 09:02:36;;;;;;;16.25;6.10;;;11.50;46.50;;;;;;5023165;28;20073;-66
2021/12/11 09:05:20;;;;;;;19.52;6.40;;;11.40;47.20;;;;;;5052130;28;20073;-66
2021/12/11 09:07:54;;;;;;;20.23;5.75;;;11.40;47.70;;;;;;5032560;28;20073;-68
2021/12/11 09:10:29;;;;;;;14.40;5.40;;;11.40;47.90;;;;;;5038328;28;20081;-67
2021/12/11 09:13:18;;;;;;;10.48;4.85;;;11.30;47.80;;;;;;5038209;28;20084;-67
2021/12/11 09:15:47;;;;;;;18.77;5.03;;;11.30;47.90;;;;;;5018540;28;20081;-66
2021/12/11 09:18:25;;;;;;;14.80;4.72;;;11.20;48.30;;;;;;5033026;28;20097;-65
2021/12/11 09:21:08;;;;;;;15.73;5.05;;;11.20;48.90;;;;;;5035218;28;20077;-67
2021/12/11 09:23:42;;;;;;;12.10;4.25;;;11.10;48.80;;;;;;5035796;28;20069;-68
2021/12/11 09:26:14;;;;;;;11.15;4.25;;;11.10;49.20;;;;;;5031606;28;20084;-68
2021/12/11 09:28:49;;;;;;;12.73;4.18;;;11.10;49.10;;;;;;5036032;28;20069;-66
2021/12/11 09:31:32;;;;;;;14.93;3.95;;;11.10;48.70;;;;;;5050898;28;20114;-67
2021/12/11 09:34:27;;;;;;;12.82;3.72;;;11.10;48.60;;;;;;5034561;28;20085;-68
2021/12/11 09:36:58;;;;;;;12.00;3.78;;;11.00;48.60;;;;;;5035645;28;20460;-65
2021/12/11 09:39:48;;;;;;;16.45;4.15;;;11.00;48.90;;;;;;5035865;28;20619;-65
2021/12/11 09:42:14;;;;;;;13.32;4.22;;;11.00;48.20;;;;;;5034444;28;20089;-66
2021/12/11 09:44:48;;;;;;;16.50;4.53;;;11.00;47.90;;;;;;5050457;28;20069;-66
2021/12/11 09:47:28;;;;;;;11.32;4.57;;;11.00;48.70;;;;;;5050509;28;20521;-66
2021/12/11 09:50:01;;;;;;;14.70;3.83;;;11.00;49.20;;;;;;5035505;28;20109;-66
2021/12/11 09:52:30;;;;;;;13.50;4.03;;;10.90;49.90;;;;;;5049833;28;20080;-66
2021/12/11 09:55:03;;;;;;;7.97;3.85;;;10.90;49.50;;;;;;5037110;28;20108;-65
2021/12/11 09:57:33;;;;;;;12.40;3.63;;;11.00;49.50;;;;;;5015917;28;20539;-65
2021/12/11 10:00:05;;;;;;;13.82;3.92;;;11.00;49.60;;;;;;5050370;28;20184;-68
2021/12/11 10:02:33;;;;;;;7.97;2.85;;;11.00;50.00;;;;;;5047894;28;20524;-65
2021/12/11 10:05:29;;;;;;;13.27;2.83;;;10.90;49.20;;;;;;5049381;28;20152;-66
2021/12/11 10:08:13;;;;;;;7.32;2.80;;;10.80;47.90;;;;;;5038188;28;20107;-67
2021/12/11 10:10:40;;;;;;;14.63;2.17;;;10.80;46.70;;;;;;5050026;28;20089;-66
2021/12/11 10:13:06;;;;;;;;;;;10.80;46.80;;;;;;5036794;28;20158;-66
2021/12/11 10:15:34;;;;;;;7.47;2.10;;;10.90;47.20;;;;;;5036590;28;20116;-66
2021/12/11 10:18:09;;;;;;;5.30;1.85;;;10.90;47.10;;;;;;5035278;28;20105;-66
2021/12/11 10:20:41;;;;;;;5.28;1.80;;;10.90;45.70;;;;;;5023963;28;20531;-65
2021/12/11 10:23:12;;;;;;;7.22;1.77;;;10.80;45.10;;;;;;5019017;28;20069;-67
2021/12/11 10:25:41;;;;;;;5.50;1.70;;;10.80;44.00;;;;;;5018944;28;20089;-66
2021/12/11 10:28:12;;;;;;;5.90;1.58;;;10.80;43.60;;;;;;5033596;28;20166;-66
2021/12/11 10:30:44;;;;;;;7.47;2.10;;;10.80;43.50;;;;;;5034177;28;20474;-65
2021/12/11 10:33:13;;;;;;;5.85;1.55;;;10.80;43.00;;;;;;5032618;28;20175;-65
2021/12/11 10:35:44;;;;;;;7.15;1.75;;;10.80;43.50;;;;;;5052894;28;20097;-65
2021/12/11 10:38:10;;;;;;;4.60;1.70;;;10.70;43.30;;;;;;5031943;28;20077;-65
2021/12/11 10:40:41;;;;;;;4.95;1.52;;;10.80;42.90;;;;;;5051060;28;20159;-66
2021/12/11 10:43:31;;;;;;;8.32;1.85;;;10.80;42.80;;;;;;5041053;28;20536;-65
2021/12/11 10:45:59;;;;;;;7.05;1.40;;;10.80;42.80;;;;;;5053030;28;20077;-66
2021/12/11 10:48:30;;;;;;;4.80;1.88;;;10.80;43.00;;;;;;5032581;28;20077;-66
2021/12/11 10:51:03;;;;;;;3.22;1.40;;;10.70;43.30;;;;;;5033768;28;20116;-65
2021/12/11 10:53:31;;;;;;;6.65;1.45;;;10.70;43.30;;;;;;5048838;28;20834;-67
2021/12/11 10:56:01;;;;;;;4.72;1.58;;;10.70;43.80;;;;;;5037053;28;20081;-67
2021/12/11 10:58:33;;;;;;;9.60;1.67;;;10.70;43.80;;;;;;5033307;28;20069;-65
2021/12/11 11:01:37;;;;;;;8.27;2.03;;;10.70;45.10;;;;;;5014439;28;20528;-65
2021/12/11 11:04:12;;;;;;;7.22;1.70;;;10.70;45.20;;;;;;5036476;28;20077;-66
2021/12/11 11:06:40;;;;;;;6.20;1.98;;;10.70;46.60;;;;;;5050231;28;20081;-66
2021/12/11 11:09:09;;;;;;;9.75;1.83;;;10.60;47.40;;;;;;5032879;28;20598;-67
2021/12/11 11:11:37;;;;;;;2.60;1.67;;;10.60;46.70;;;;;;5050582;28;20079;-66
2021/12/11 11:14:06;;;;;;;7.57;1.85;;;10.60;47.00;;;;;;5048085;28;20167;-66
2021/12/11 11:16:33;;;;;;;6.47;1.63;;;10.60;48.00;;;;;;5034786;28;20078;-66
2021/12/11 11:19:00;;;;;;;4.85;1.77;;;10.60;48.00;;;;;;5053612;28;20100;-66
2021/12/11 11:21:28;;;;;;;;;;;10.60;48.50;;;;;;5038703;28;20111;-66
2021/12/11 11:23:55;;;;;;;3.38;1.67;;;10.60;48.80;;;;;;5037507;28;19960;-66
2021/12/11 11:26:29;;;;;;;10.05;1.60;;;10.60;50.00;;;;;;5040145;28;20176;-66
2021/12/11 11:28:58;;;;;;;5.30;1.50;;;10.60;50.00;;;;;;5040208;28;20073;-67
2021/12/11 11:31:34;;;;;;;6.85;1.60;;;10.60;49.80;;;;;;5055185;28;20112;-65
2021/12/11 11:34:03;;;;;;;5.50;1.38;;;10.60;49.90;;;;;;5024197;28;20083;-66
2021/12/11 11:36:30;;;;;;;8.10;1.67;;;10.60;49.80;;;;;;5037183;28;20200;-66
2021/12/11 11:39:00;;;;;;;7.95;1.70;;;10.60;51.40;;;;;;5038392;28;20098;-65
2021/12/11 11:41:34;;;;;;;5.88;1.60;;;10.60;51.00;;;;;;5036377;28;20839;-66
2021/12/11 11:44:02;;;;;;;5.32;1.92;;;10.50;50.50;;;;;;5038210;28;20077;-66
2021/12/11 11:46:29;;;;;;;6.15;1.48;;;10.40;50.20;;;;;;5023748;28;20160;-66
2021/12/11 11:48:58;;;;;;;5.28;1.92;;;10.40;49.60;;;;;;5018400;28;20073;-66
2021/12/11 11:51:32;;;;;;;10.13;1.90;;;10.30;49.70;;;;;;5052388;28;20100;-67
2021/12/11 11:53:59;;;;;;;7.80;1.88;;;10.40;50.50;;;;;;5018512;28;20104;-66
2021/12/11 11:56:30;;;;;;;3.50;1.60;;;10.40;51.20;;;;;;5034536;28;20069;-67
2021/12/11 11:58:56;;;;;;;6.63;1.70;;;9.40;50.40;;;;;;5052830;28;20093;-66
2021/12/11 12:01:30;;;;;;;4.07;1.75;;;10.30;50.40;;;;;;5036954;28;20069;-66
2021/12/11 12:03:58;;;;;;;5.57;1.80;;;10.30;51.20;;;;;;5022068;28;20073;-66
2021/12/11 12:06:31;;;;;;;9.25;1.92;;;10.30;52.80;;;;;;5035756;28;20081;-66
2021/12/11 12:09:00;;;;;;;7.90;2.10;;;10.20;52.20;;;;;;5021319;28;20539;-65
2021/12/11 12:11:31;;;;;;;5.97;1.80;;;10.20;52.80;;;;;;5034356;28;20101;-65
2021/12/11 12:14:00;;;;;;;6.90;2.30;;;10.20;52.80;;;;;;5049750;28;20774;-66
2021/12/11 12:16:28;;;;;;;6.15;2.28;;;10.10;53.50;;;;;;5034020;28;20147;-66
2021/12/11 12:18:54;;;;;;;10.45;4.32;;;10.00;53.40;;;;;;5038065;28;20535;-67
2021/12/11 12:21:21;;;;;;;;;;;9.90;53.50;;;;;;5038861;28;20185;-67
2021/12/11 12:23:48;;;;;;;9.55;3.78;;;9.90;53.20;;;;;;5038702;28;20495;-66
2021/12/11 12:26:24;;;;;;;13.63;5.95;;;9.90;52.90;;;;;;5035722;28;20089;-66
2021/12/11 12:28:53;;;;;;;12.48;7.25;;;9.80;51.70;;;;;;5017855;28;20462;-67
2021/12/11 12:31:32;;;;;;;17.00;6.28;;;9.90;53.50;;;;;;5035948;28;20552;-66
2021/12/11 12:34:00;;;;;;;13.70;6.05;;;9.90;53.90;;;;;;5027791;28;20089;-65
2021/12/11 12:36:28;;;;;;;13.18;6.00;;;9.70;53.00;;;;;;5032000;28;20077;-66
2021/12/11 12:38:55;;;;;;;15.70;5.07;;;9.70;53.10;;;;;;5032798;28;20085;-66
2021/12/11 12:41:33;;;;;;;21.50;4.97;;;9.80;54.30;;;;;;5035696;28;20436;-65
2021/12/11 12:46:50;;;;;;;10.93;4.40;;;9.70;53.70;;;;;;5037264;28;20076;-66
2021/12/11 12:49:18;;;;;;;11.73;4.85;;;9.70;54.10;;;;;;5009199;28;20109;-65
2021/12/11 12:51:48;;;;;;;9.27;4.75;;;9.70;53.90;;;;;;5009550;28;20075;-67
2021/12/11 12:54:17;;;;;;;13.80;5.60;;;9.50;54.00;;;;;;5055428;28;20164;-67
2021/12/11 12:56:54;;;;;;;12.25;5.82;;;9.60;55.20;;;;;;5034116;28;20168;-67
2021/12/11 12:59:33;;;;;;;18.85;6.68;;;9.50;54.70;;;;;;5040585;28;20096;-67
2021/12/11 13:02:08;;;;;;;11.88;6.90;;;9.30;54.90;;;;;;5041479;28;20092;-68
2021/12/11 13:04:40;;;;;;;16.48;7.28;;;9.40;54.60;;;;;;5050537;28;20069;-67
2021/12/11 13:07:12;;;;;;;17.75;8.07;;;9.30;54.60;;;;;;5035050;28;20069;-68
2021/12/11 13:09:46;;;;;;;16.02;7.72;;;9.00;54.50;;;;;;5036880;28;20108;-67
2021/12/11 13:12:26;;;;;;;14.40;7.05;;;8.90;55.00;;;;;;5034708;28;20081;-67
2021/12/11 13:14:56;;;;;;;13.27;7.50;;;8.90;55.50;;;;;;5050259;28;20081;-66
2021/12/11 13:17:37;;;;;;;16.30;6.85;;;9.00;55.60;;;;;;5034832;28;20109;-67
2021/12/11 13:20:18;;;;;;;12.82;6.65;;;9.10;55.60;;;;;;5039180;28;20519;-67
2021/12/11 13:22:46;;;;;;;16.05;7.18;;;9.00;55.20;;;;;;5051942;28;20081;-67
2021/12/11 13:25:27;;;;;;;13.32;7.95;;;9.10;55.60;;;;;;5037386;28;20088;-66